Texarkana Regional Webb Field
KTXK : now visible

Airfield :











YOU CAN JOIN US ON...

 
LOGIN :

Register | Disclaimer

   EN    FR    IT 

 









Legend :    VFR   Marginal VFR   IFR   Intensive IFR   Very Intensive IFR
Visi :
Ceiling :
>= 8 km
>= 3000ft
5 to 8 km
1000 to 3000 ft
1500m to 5 km
500 to 1000 ft
800 to 1500m
200 to 500 ft
< 800m
< 200 ft
Symbols :   Thunderstorms  Fog  Heavy snow  Heavy precipitations  Wind > 20 kt






- Airport Elevation : 390 ft
- IATA code : TXK


KTXK - Texarkana Regional Webb Field

CURRENT METAR :
  • 180253Z 17007KT 10SM OVC010 19/17 A2986 RMK AO2 CIG 008V013 SLP110 T01890172 51012

EXPIRED METARs :
  • 180153Z 18008KT 10SM OVC012 19/17 A2985 RMK AO2 SLP106 T01890167
  • 180134Z 17007KT 10SM BKN017 19/17 A2984 RMK AO2 T01890167
  • 180105Z 16009KT 10SM SCT015 18/17 A2984 RMK AO2 T01830167
  • 180053Z 16011KT 10SM BKN016 19/17 A2983 RMK AO2 SLP097 T01890167
  • 180034Z 17009KT 10SM BKN017 BKN032 BKN060 19/17 A2983 RMK AO2 T01890167
  • 180011Z 17010KT 10SM SCT026 BKN034 BKN043 19/17 A2982 RMK AO2 T01940167

TAF KTXK
Valid from the 18 at 00:00 until the 19 at 00:00 UTC


172322Z 1800/1824 17008KT P6SM SCT035 BKN060
FM180300 17005KT 6SM BR BKN025
FM181000 30003KT 4SM BR VCTS OVC004CB
FM181900 36012G18KT P6SM -TSRA OVC010CB



MET'MAP, your aeronautical weather chart ! - Copyright ORBIFLY December 2007 - Disclaimer

ORBIFLY MET'MAP TEAM :

Programming & Development : Alexandra Zaïnal
Concept & original design : Baudouin d'Aumeries
Assistance for programming : Marc-Olivier Méhu
Technical & hardware support : Manuel Goepfert

Contact : metmap@orbifly.com




SOURCES & CREDITS :

   NOAA       Earth
Advisory